Time;durP1;ratioP1;P1;durP2;ratioP2;P2;SDS_P1;SDS_P2;PMS_P1;PMS_P2;Temp;Humidity;BMP_temperature;BMP_pressure;BME280_temperature;BME280_humidity;BME280_pressure;Samples;Min_cycle;Max_cycle;Signal;HPM_P1;HPM_P2
2023/10/08 00:01:17;;;;;;;7.8;4.2;;;;;;;17.54;69.76;;;;;
2023/10/08 00:11:17;;;;;;;11.5;5.2;;;;;;;17.5;70.17;;;;;
2023/10/08 00:22:18;;;;;;;11.5;5.2;;;;;;;17.42;70.87;;;;;
2023/10/08 00:33:18;;;;;;;11.5;5.2;;;;;;;16.99;74.83;;;;;
2023/10/08 00:43:17;;;;;;;9.5;4.8;;;;;;;16.76;76.22;;;;;
2023/10/08 00:54:19;;;;;;;9.5;4.8;;;;;;;16.51;79.05;;;;;
2023/10/08 01:04:18;;;;;;;9.5;4.8;;;;;;;16.14;82.43;;;;;
2023/10/08 01:15:24;;;;;;;8.6;4.3;;;;;;;15.73;85.27;;;;;
2023/10/08 01:26:22;;;;;;;8.6;4.3;;;;;;;15.51;86.92;;;;;
2023/10/08 01:36:18;;;;;;;8.7;5.2;;;;;;;15.52;87.44;;;;;
2023/10/08 01:46:21;;;;;;;8.7;5.2;;;;;;;15.18;86.99;;;;;
2023/10/08 01:57:17;;;;;;;8.7;5.2;;;;;;;14.79;88.4;;;;;
2023/10/08 02:08:17;;;;;;;2.9;1;;;;;;;14.63;88.66;;;;;
2023/10/08 02:19:18;;;;;;;2.9;1;;;;;;;13.17;87.09;;;;;
2023/10/08 02:29:17;;;;;;;2.9;1;;;;;;;12.35;87.22;;;;;
2023/10/08 02:40:25;;;;;;;0.8;0.4;;;;;;;11.75;88.95;;;;;
2023/10/08 02:50:18;;;;;;;0.8;0.4;;;;;;;11.54;88.87;;;;;
2023/10/08 03:01:18;;;;;;;0.8;0.4;;;;;;;11.34;89.38;;;;;
2023/10/08 03:11:18;;;;;;;0.3;0.2;;;;;;;11.31;89.31;;;;;
2023/10/08 03:22:19;;;;;;;0.3;0.2;;;;;;;11.18;90.24;;;;;
2023/10/08 03:32:18;;;;;;;0.3;0.2;;;;;;;11.35;87.95;;;;;
2023/10/08 03:43:33;;;;;;;0.6;0.4;;;;;;;11.3;88.26;;;;;
2023/10/08 03:54:18;;;;;;;0.6;0.4;;;;;;;11.29;87.49;;;;;
2023/10/08 04:04:18;;;;;;;0.6;0.4;;;;;;;11.08;88.14;;;;;
2023/10/08 04:15:18;;;;;;;1.6;0.4;;;;;;;10.97;89.05;;;;;
2023/10/08 04:26:18;;;;;;;1.6;0.4;;;;;;;10.86;88.09;;;;;
2023/10/08 04:37:20;;;;;;;0.6;0.5;;;;;;;10.81;88.16;;;;;
2023/10/08 04:47:31;;;;;;;0.6;0.5;;;;;;;10.69;87.48;;;;;
2023/10/08 04:58:28;;;;;;;0.6;0.5;;;;;;;10.53;86.99;;;;;
2023/10/08 05:09:38;;;;;;;1.3;0.5;;;;;;;10.49;87.46;;;;;
2023/10/08 05:20:29;;;;;;;1.3;0.5;;;;;;;10.4;87.97;;;;;
2023/10/08 05:30:25;;;;;;;1.3;0.5;;;;;;;10.33;87.75;;;;;
2023/10/08 05:41:04;;;;;;;2.5;0.7;;;;;;;10.3;87.58;;;;;
2023/10/08 05:51:33;;;;;;;2.5;0.7;;;;;;;10.35;87.77;;;;;
2023/10/08 06:01:37;;;;;;;2.5;0.7;;;;;;;10.21;87.92;;;;;
2023/10/08 06:11:36;;;;;;;2;0.9;;;;;;;10.23;88.01;;;;;
2023/10/08 06:21:18;;;;;;;2;0.9;;;;;;;10.39;87.93;;;;;
2023/10/08 06:32:22;;;;;;;2;0.9;;;;;;;10.18;88.69;;;;;
2023/10/08 06:42:18;;;;;;;3.8;1.4;;;;;;;10.25;88.59;;;;;
2023/10/08 06:53:18;;;;;;;3.8;1.4;;;;;;;10.27;88.71;;;;;
2023/10/08 07:04:18;;;;;;;3.8;1.4;;;;;;;10.34;88.58;;;;;
2023/10/08 07:15:23;;;;;;;5.1;1.4;;;;;;;10.42;88.53;;;;;
2023/10/08 07:25:20;;;;;;;5.1;1.4;;;;;;;10.45;88.74;;;;;
2023/10/08 07:35:25;;;;;;;4.4;2;;;;;;;10.71;88.61;;;;;
2023/10/08 07:46:18;;;;;;;4.4;2;;;;;;;11;87.21;;;;;
2023/10/08 07:56:18;;;;;;;4.4;2;;;;;;;11.04;86.68;;;;;
2023/10/08 08:07:18;;;;;;;3.1;1.4;;;;;;;11.32;85.46;;;;;
2023/10/08 08:17:18;;;;;;;3.1;1.4;;;;;;;12.17;84.61;;;;;
2023/10/08 08:27:23;;;;;;;3.1;1.4;;;;;;;11.82;83.04;;;;;
2023/10/08 08:37:18;;;;;;;5.9;2.6;;;;;;;11.83;83.19;;;;;
2023/10/08 08:48:18;;;;;;;5.9;2.6;;;;;;;11.92;81.28;;;;;
2023/10/08 08:58:18;;;;;;;5.9;2.6;;;;;;;12.23;81.64;;;;;
2023/10/08 09:09:21;;;;;;;3.9;1.4;;;;;;;12.34;78.9;;;;;
2023/10/08 09:20:20;;;;;;;3.9;1.4;;;;;;;12.39;74.54;;;;;
2023/10/08 09:31:18;;;;;;;3.9;1.4;;;;;;;12.39;69.1;;;;;
2023/10/08 09:41:18;;;;;;;4.8;1.8;;;;;;;12.69;68.7;;;;;
2023/10/08 09:51:18;;;;;;;4.8;1.8;;;;;;;12.99;64.59;;;;;
2023/10/08 10:02:21;;;;;;;4.8;1.8;;;;;;;12.76;59.89;;;;;
2023/10/08 10:13:20;;;;;;;4;1.8;;;;;;;12.87;58.31;;;;;
2023/10/08 10:24:19;;;;;;;4;1.8;;;;;;;13.09;57.96;;;;;
2023/10/08 10:34:18;;;;;;;4;1.8;;;;;;;12.86;64.04;;;;;
2023/10/08 10:45:40;;;;;;;2.9;1.2;;;;;;;12.62;51.62;;;;;
2023/10/08 10:55:19;;;;;;;2.9;1.2;;;;;;;12.64;49.75;;;;;
2023/10/08 11:05:19;;;;;;;2.4;1.1;;;;;;;12.66;48.88;;;;;
2023/10/08 11:16:21;;;;;;;2.4;1.1;;;;;;;12.49;52.16;;;;;
2023/10/08 11:27:28;;;;;;;2.4;1.1;;;;;;;12.67;49.16;;;;;
2023/10/08 11:38:22;;;;;;;2.3;1.1;;;;;;;12.87;49.12;;;;;
2023/10/08 11:49:18;;;;;;;2.3;1.1;;;;;;;12.64;47.68;;;;;
2023/10/08 11:59:18;;;;;;;2.3;1.1;;;;;;;12.8;47.07;;;;;
2023/10/08 12:10:22;;;;;;;3.6;1.3;;;;;;;12.82;47.69;;;;;
2023/10/08 12:20:22;;;;;;;3.6;1.3;;;;;;;12.95;44.93;;;;;
2023/10/08 12:31:21;;;;;;;3.6;1.3;;;;;;;12.96;44.86;;;;;
2023/10/08 12:42:20;;;;;;;2.3;1;;;;;;;12.98;45.68;;;;;
2023/10/08 12:53:18;;;;;;;2.3;1;;;;;;;12.87;44.54;;;;;
2023/10/08 13:04:26;;;;;;;2.9;1;;;;;;;12.69;43.01;;;;;
2023/10/08 13:14:18;;;;;;;2.9;1;;;;;;;12.6;43.99;;;;;
2023/10/08 13:24:18;;;;;;;2.9;1;;;;;;;12.48;45.41;;;;;
2023/10/08 13:35:18;;;;;;;2;1;;;;;;;12.55;45.41;;;;;
2023/10/08 13:45:26;;;;;;;2;1;;;;;;;12.3;44.81;;;;;
2023/10/08 13:56:19;;;;;;;2;1;;;;;;;12.24;45.02;;;;;
2023/10/08 14:07:18;;;;;;;2.5;1;;;;;;;12.18;45.65;;;;;
2023/10/08 14:18:25;;;;;;;2.5;1;;;;;;;11.86;45;;;;;
2023/10/08 14:28:36;;;;;;;2.5;1;;;;;;;11.73;44.73;;;;;
2023/10/08 14:49:18;;;;;;;2.8;1.1;;;;;;;11.41;44.98;;;;;
2023/10/08 15:00:24;;;;;;;2.8;1.1;;;;;;;11.16;46.68;;;;;
2023/10/08 15:10:18;;;;;;;3;1.3;;;;;;;10.85;47.12;;;;;
2023/10/08 15:21:18;;;;;;;3;1.3;;;;;;;10.55;45.98;;;;;
2023/10/08 15:31:19;;;;;;;3;1.3;;;;;;;10.31;47.34;;;;;
2023/10/08 15:42:18;;;;;;;3.6;1.4;;;;;;;9.94;49.37;;;;;
2023/10/08 15:53:18;;;;;;;3.6;1.4;;;;;;;9.49;51.77;;;;;
2023/10/08 16:03:19;;;;;;;3.6;1.4;;;;;;;9.15;52.15;;;;;
2023/10/08 16:14:20;;;;;;;2.6;1.3;;;;;;;8.77;54.04;;;;;
2023/10/08 16:25:18;;;;;;;2.6;1.3;;;;;;;8.34;56.13;;;;;
2023/10/08 16:35:19;;;;;;;3.4;1.2;;;;;;;8.05;57.47;;;;;
2023/10/08 16:45:19;;;;;;;3.4;1.2;;;;;;;7.72;58.85;;;;;
2023/10/08 16:55:18;;;;;;;3.4;1.2;;;;;;;7.54;60.55;;;;;
2023/10/08 17:06:18;;;;;;;3.3;1.4;;;;;;;7.3;63.25;;;;;
2023/10/08 17:17:19;;;;;;;3.3;1.4;;;;;;;6.95;65.13;;;;;
2023/10/08 17:27:18;;;;;;;3.3;1.4;;;;;;;6.71;68.54;;;;;
2023/10/08 17:38:18;;;;;;;3.5;1.9;;;;;;;6.47;68.54;;;;;
2023/10/08 17:49:19;;;;;;;3.5;1.9;;;;;;;6.37;68.7;;;;;
2023/10/08 18:00:20;;;;;;;3.5;1.9;;;;;;;6.2;68.56;;;;;
2023/10/08 18:11:19;;;;;;;4.8;1.9;;;;;;;6.13;68.96;;;;;
2023/10/08 18:22:19;;;;;;;4.8;1.9;;;;;;;6.06;70.19;;;;;
2023/10/08 18:32:20;;;;;;;4.8;1.9;;;;;;;5.99;70.7;;;;;
2023/10/08 18:42:19;;;;;;;4.6;2.1;;;;;;;5.81;70.66;;;;;
2023/10/08 18:52:19;;;;;;;4.6;2.1;;;;;;;5.58;72.39;;;;;
2023/10/08 19:02:19;;;;;;;4.6;2.1;;;;;;;5.42;73.1;;;;;
2023/10/08 19:13:18;;;;;;;7.2;2.7;;;;;;;5.34;73.98;;;;;
2023/10/08 19:23:18;;;;;;;7.2;2.7;;;;;;;5.38;74.05;;;;;
2023/10/08 19:33:19;;;;;;;7.2;2.7;;;;;;;5.55;74.13;;;;;
2023/10/08 19:44:18;;;;;;;6.5;2.6;;;;;;;5.76;74.81;;;;;
2023/10/08 19:54:20;;;;;;;6.5;2.6;;;;;;;5.84;74.46;;;;;
2023/10/08 20:04:18;;;;;;;5.2;2.3;;;;;;;5.94;74.11;;;;;
2023/10/08 20:15:18;;;;;;;5.2;2.3;;;;;;;6.01;74.06;;;;;
2023/10/08 20:25:18;;;;;;;5.2;2.3;;;;;;;6.11;74.79;;;;;
2023/10/08 20:36:18;;;;;;;6.2;2.8;;;;;;;6.11;74.41;;;;;
2023/10/08 20:46:19;;;;;;;6.2;2.8;;;;;;;6.2;74.47;;;;;
2023/10/08 20:56:19;;;;;;;6.2;2.8;;;;;;;6.3;74.22;;;;;
2023/10/08 21:07:18;;;;;;;6.2;2.9;;;;;;;6.36;74.05;;;;;
2023/10/08 21:18:19;;;;;;;6.2;2.9;;;;;;;6.29;73.68;;;;;
2023/10/08 21:28:18;;;;;;;6.2;2.9;;;;;;;6.22;74.5;;;;;
2023/10/08 21:39:18;;;;;;;6.9;2.6;;;;;;;6.08;75.2;;;;;
2023/10/08 21:49:18;;;;;;;6.9;2.6;;;;;;;5.92;75.14;;;;;
2023/10/08 22:00:44;;;;;;;6.9;2.6;;;;;;;5.85;75.83;;;;;
2023/10/08 22:11:19;;;;;;;6.1;2.9;;;;;;;5.7;75.62;;;;;
2023/10/08 22:22:20;;;;;;;6.1;2.9;;;;;;;5.41;75.55;;;;;
2023/10/08 22:32:18;;;;;;;6.1;2.9;;;;;;;5.11;76.25;;;;;
2023/10/08 22:42:20;;;;;;;5.8;2.5;;;;;;;4.81;76.6;;;;;
2023/10/08 22:53:19;;;;;;;5.8;2.5;;;;;;;4.62;77.23;;;;;
2023/10/08 23:03:21;;;;;;;5.8;2.5;;;;;;;4.42;78.88;;;;;
2023/10/08 23:13:19;;;;;;;5.6;2.5;;;;;;;4.3;79.22;;;;;
2023/10/08 23:23:20;;;;;;;5.6;2.5;;;;;;;4.12;80.68;;;;;
2023/10/08 23:33:21;;;;;;;4.3;2.3;;;;;;;4.05;81.06;;;;;
2023/10/08 23:44:25;;;;;;;4.3;2.3;;;;;;;3.94;80.39;;;;;
2023/10/08 23:55:24;;;;;;;4.3;2.3;;;;;;;3.67;80.84;;;;;
